createdAt,value
2023-09-07T00:00:25.809Z,100804.97
2023-09-07T00:02:53.886Z,100799.09
2023-09-07T00:05:21.753Z,100801.78
2023-09-07T00:07:49.592Z,100795.78
2023-09-07T00:10:19.353Z,100789.75
2023-09-07T00:12:47.817Z,100797.69
2023-09-07T00:15:15.964Z,100795.56
2023-09-07T00:17:45.659Z,100781.47
2023-09-07T00:20:15.448Z,100791.94
2023-09-07T00:22:43.293Z,100779.00
2023-09-07T00:25:11.146Z,100790.06
2023-09-07T00:27:38.922Z,100781.38
2023-09-07T00:30:10.156Z,100780.00
2023-09-07T00:32:41.524Z,100789.88
2023-09-07T00:35:12.017Z,100789.25
2023-09-07T00:37:41.240Z,100783.13
2023-09-07T00:40:11.047Z,100786.66
2023-09-07T00:42:39.642Z,100785.06
2023-09-07T00:45:09.243Z,100782.84
2023-09-07T00:47:38.037Z,100778.56
2023-09-07T00:50:09.471Z,100783.69
2023-09-07T00:52:41.491Z,100780.38
2023-09-07T00:55:11.987Z,100780.81
2023-09-07T00:57:43.664Z,100771.63
2023-09-07T01:00:13.966Z,100785.31
2023-09-07T01:02:43.482Z,100781.38
2023-09-07T01:05:11.454Z,100773.03
2023-09-07T01:07:45.737Z,100775.91
2023-09-07T01:10:16.161Z,100770.97
2023-09-07T01:12:43.961Z,100775.16
2023-09-07T01:15:12.272Z,100765.41
2023-09-07T01:17:41.545Z,100764.66
2023-09-07T01:20:18.062Z,100763.03
2023-09-07T01:22:48.215Z,100757.78
2023-09-07T01:25:16.321Z,100767.44
2023-09-07T01:27:44.463Z,100759.84
2023-09-07T01:30:13.006Z,100762.41
2023-09-07T01:32:41.073Z,100768.84
2023-09-07T01:35:13.597Z,100767.31
2023-09-07T01:37:41.806Z,100770.75
2023-09-07T01:40:12.097Z,100765.41
2023-09-07T01:42:40.100Z,100772.78
2023-09-07T01:45:08.992Z,100765.81
2023-09-07T01:47:38.412Z,100768.91
2023-09-07T01:50:07.573Z,100774.72
2023-09-07T01:52:36.368Z,100768.59
2023-09-07T01:55:04.430Z,100765.81
2023-09-07T01:57:33.692Z,100769.38
2023-09-07T02:00:01.760Z,100771.81
2023-09-07T02:02:30.707Z,100769.66
2023-09-07T02:04:58.792Z,100764.53
2023-09-07T02:07:29.888Z,100778.56
2023-09-07T02:09:58.334Z,100769.88
2023-09-07T02:12:26.350Z,100781.13
2023-09-07T02:14:56.066Z,100765.38
2023-09-07T02:17:24.313Z,100780.78
2023-09-07T02:19:52.443Z,100780.47
2023-09-07T02:22:20.189Z,100771.28
2023-09-07T02:24:48.681Z,100765.38
2023-09-07T02:27:16.884Z,100771.59
2023-09-07T02:29:44.597Z,100767.59
2023-09-07T02:32:15.612Z,100771.47
2023-09-07T02:34:43.693Z,100762.44
2023-09-07T02:37:11.974Z,100772.09
2023-09-07T02:39:40.034Z,100774.09
2023-09-07T02:42:08.627Z,100774.00
2023-09-07T02:44:36.797Z,100764.25
2023-09-07T02:47:05.432Z,100761.69
2023-09-07T02:49:35.476Z,100774.44
2023-09-07T02:52:03.632Z,100772.91
2023-09-07T02:54:31.546Z,100773.31
2023-09-07T02:56:59.461Z,100749.53
2023-09-07T02:59:28.235Z,100734.28
2023-09-07T03:01:57.504Z,100770.31
2023-09-07T03:04:27.317Z,100756.38
2023-09-07T03:06:56.940Z,100768.81
2023-09-07T03:09:28.009Z,100768.91
2023-09-07T03:11:56.364Z,100753.16
2023-09-07T03:14:26.195Z,100765.81
2023-09-07T03:16:55.720Z,100755.44
2023-09-07T03:19:23.812Z,100767.94
2023-09-07T03:21:51.747Z,100756.25
2023-09-07T03:24:21.457Z,100741.00
2023-09-07T03:26:49.997Z,100753.94
2023-09-07T03:29:18.390Z,100771.34
2023-09-07T03:31:46.804Z,100769.63
2023-09-07T03:34:15.870Z,100764.19
2023-09-07T03:36:44.531Z,100760.09
2023-09-07T03:39:12.422Z,100769.28
2023-09-07T03:41:41.966Z,100771.94
2023-09-07T03:44:10.242Z,100772.59
2023-09-07T03:46:40.458Z,100766.59
2023-09-07T03:49:09.898Z,100774.06
2023-09-07T03:51:38.806Z,100774.28
2023-09-07T03:54:08.495Z,100782.56
2023-09-07T03:56:37.366Z,100781.81
2023-09-07T03:59:06.707Z,100779.44
2023-09-07T04:01:34.755Z,100775.81
2023-09-07T04:04:05.366Z,100774.94
2023-09-07T04:06:34.282Z,100777.06
2023-09-07T04:09:02.077Z,100781.47
2023-09-07T04:11:30.658Z,100781.56
2023-09-07T04:13:58.603Z,100785.28
2023-09-07T04:16:28.468Z,100780.97
2023-09-07T04:18:56.423Z,100781.94
2023-09-07T04:21:26.741Z,100779.06
2023-09-07T04:23:54.630Z,100787.09
2023-09-07T04:26:22.693Z,100777.25
2023-09-07T04:28:50.503Z,100782.59
2023-09-07T04:31:18.425Z,100786.22
2023-09-07T04:33:48.820Z,100785.94
2023-09-07T04:36:16.992Z,100786.13
2023-09-07T04:38:48.488Z,100790.81
2023-09-07T04:41:17.251Z,100790.13
2023-09-07T04:43:50.176Z,100789.28
2023-09-07T04:46:20.125Z,100799.97
2023-09-07T04:48:51.734Z,100794.06
2023-09-07T04:51:20.844Z,100809.59
2023-09-07T04:53:48.851Z,100804.25
2023-09-07T04:56:18.292Z,100801.22
2023-09-07T04:58:46.388Z,100804.56
2023-09-07T05:01:15.056Z,100813.63
2023-09-07T05:03:44.434Z,100803.91
2023-09-07T05:06:15.206Z,100808.19
2023-09-07T05:08:43.383Z,100809.91
2023-09-07T05:11:13.623Z,100802.38
2023-09-07T05:13:42.009Z,100812.38
2023-09-07T05:16:09.884Z,100819.34
2023-09-07T05:18:38.460Z,100821.16
2023-09-07T05:21:15.309Z,100825.44
2023-09-07T05:23:45.104Z,100819.34
2023-09-07T05:26:13.278Z,100816.75
2023-09-07T05:28:42.586Z,100825.06
2023-09-07T05:31:11.321Z,100822.19
2023-09-07T05:33:39.601Z,100819.81
2023-09-07T05:36:08.106Z,100826.66
2023-09-07T05:38:39.339Z,100832.78
2023-09-07T05:41:09.341Z,100833.63
2023-09-07T05:43:38.037Z,100831.72
2023-09-07T05:46:07.104Z,100816.47
2023-09-07T05:48:35.292Z,100838.56
2023-09-07T05:51:07.770Z,100835.53
2023-09-07T05:53:36.031Z,100832.63
2023-09-07T05:56:06.335Z,100830.44
2023-09-07T05:58:34.915Z,100828.03
2023-09-07T06:01:03.959Z,100827.63
2023-09-07T06:03:33.484Z,100830.69
2023-09-07T06:06:01.712Z,100828.63
2023-09-07T06:08:30.165Z,100835.31
2023-09-07T06:10:59.038Z,100828.56
2023-09-07T06:13:28.703Z,100819.69
2023-09-07T06:16:01.814Z,100831.84
2023-09-07T06:18:30.606Z,100831.44
2023-09-07T06:20:59.001Z,100831.75
2023-09-07T06:23:27.018Z,100827.72
2023-09-07T06:25:55.180Z,100830.50
2023-09-07T06:28:23.382Z,100824.31
2023-09-07T06:30:53.848Z,100832.38
2023-09-07T06:33:21.765Z,100835.72
2023-09-07T06:35:50.498Z,100834.94
2023-09-07T06:38:19.186Z,100835.34
2023-09-07T06:40:52.264Z,100832.53
2023-09-07T06:43:22.125Z,100836.78
2023-09-07T06:45:51.994Z,100835.47
2023-09-07T06:48:21.577Z,100837.00
2023-09-07T06:50:51.164Z,100830.38
2023-09-07T06:53:19.847Z,100835.63
2023-09-07T06:55:47.698Z,100842.69
2023-09-07T06:58:17.036Z,100842.63
2023-09-07T07:00:46.155Z,100841.03
2023-09-07T07:03:18.032Z,100842.06
2023-09-07T07:05:46.281Z,100843.13
2023-09-07T07:08:14.333Z,100853.34
2023-09-07T07:10:42.591Z,100853.09
2023-09-07T07:13:19.196Z,100845.13
2023-09-07T07:18:36.184Z,100847.25
2023-09-07T07:21:04.636Z,100847.78
2023-09-07T07:23:33.385Z,100845.59
2023-09-07T07:26:01.742Z,100841.78
2023-09-07T07:28:29.777Z,100842.13
2023-09-07T07:30:58.086Z,100838.44
2023-09-07T07:33:26.448Z,100844.69
2023-09-07T07:35:56.600Z,100837.03
2023-09-07T07:38:27.104Z,100845.41
2023-09-07T07:40:55.801Z,100847.16
2023-09-07T07:43:24.046Z,100842.28
2023-09-07T07:45:54.454Z,100840.44
2023-09-07T07:48:23.591Z,100832.34
2023-09-07T07:50:59.330Z,100840.44
2023-09-07T07:53:31.080Z,100841.44
2023-09-07T07:56:01.578Z,100843.69
2023-09-07T07:58:29.999Z,100823.97
2023-09-07T08:00:59.888Z,100849.22
2023-09-07T08:03:32.236Z,100833.97
2023-09-07T08:06:00.376Z,100832.84
2023-09-07T08:08:28.851Z,100833.31
2023-09-07T08:11:01.860Z,100843.50
2023-09-07T08:13:30.924Z,100839.69
2023-09-07T08:16:00.181Z,100837.31
2023-09-07T08:18:29.164Z,100836.78
2023-09-07T08:20:57.427Z,100832.81
2023-09-07T08:23:27.107Z,100808.47
2023-09-07T08:25:59.877Z,100824.72
2023-09-07T08:28:30.828Z,100836.41
2023-09-07T08:31:02.476Z,100821.47
2023-09-07T08:33:31.474Z,100828.63
2023-09-07T08:36:01.639Z,100834.72
2023-09-07T08:38:32.455Z,100835.06
2023-09-07T08:41:06.408Z,100831.69
2023-09-07T08:43:36.727Z,100829.56
2023-09-07T08:46:13.099Z,100826.97
2023-09-07T08:48:42.020Z,100839.56
2023-09-07T08:51:12.755Z,100820.72
2023-09-07T08:53:41.999Z,100832.44
2023-09-07T08:56:13.924Z,100832.78
2023-09-07T08:58:42.312Z,100830.09
2023-09-07T09:01:10.926Z,100837.81
2023-09-07T09:03:39.138Z,100827.78
2023-09-07T09:06:10.346Z,100830.63
2023-09-07T09:08:45.252Z,100818.66
2023-09-07T09:11:14.471Z,100830.34
2023-09-07T09:13:42.776Z,100834.88
2023-09-07T09:16:11.258Z,100823.91
2023-09-07T09:18:40.870Z,100835.41
2023-09-07T09:21:08.689Z,100829.97
2023-09-07T09:23:37.653Z,100818.28
2023-09-07T09:29:07.036Z,100814.84
2023-09-07T09:31:36.381Z,100825.03
2023-09-07T09:34:05.323Z,100810.22
2023-09-07T09:36:38.798Z,100819.16
2023-09-07T09:39:07.602Z,100803.00
2023-09-07T09:41:36.375Z,100800.78
2023-09-07T09:44:07.503Z,100803.38
2023-09-07T09:46:40.926Z,100806.13
2023-09-07T09:49:12.732Z,100796.22
2023-09-07T09:51:44.446Z,100792.09
2023-09-07T09:54:17.946Z,100789.44
2023-09-07T09:56:46.134Z,100792.91
2023-09-07T09:59:16.948Z,100788.97
2023-09-07T10:01:47.496Z,100780.28
2023-09-07T10:04:19.143Z,100778.69
2023-09-07T10:06:57.225Z,100773.56
2023-09-07T10:09:25.738Z,100779.88
2023-09-07T10:11:55.757Z,100767.16
2023-09-07T10:14:25.191Z,100768.53
2023-09-07T10:16:57.152Z,100765.38
2023-09-07T10:19:27.613Z,100761.53
2023-09-07T10:21:57.552Z,100748.31
2023-09-07T10:24:33.401Z,100765.22
2023-09-07T10:27:03.526Z,100755.91
2023-09-07T10:29:42.959Z,100755.56
2023-09-07T10:32:13.532Z,100753.03
2023-09-07T10:34:45.044Z,100752.69
2023-09-07T10:37:14.678Z,100747.44
2023-09-07T10:39:45.221Z,100744.75
2023-09-07T10:42:22.461Z,100737.31
2023-09-07T10:44:51.820Z,100745.47
2023-09-07T10:47:19.948Z,100748.19
2023-09-07T10:49:48.226Z,100735.97
2023-09-07T10:52:16.311Z,100741.44
2023-09-07T10:54:44.765Z,100732.25
2023-09-07T10:57:15.078Z,100737.34
2023-09-07T10:59:47.755Z,100730.88
2023-09-07T11:02:17.855Z,100730.66
2023-09-07T11:04:45.826Z,100731.53
2023-09-07T11:07:14.373Z,100725.06
2023-09-07T11:09:42.925Z,100724.56
2023-09-07T11:12:14.337Z,100701.47
2023-09-07T11:14:43.659Z,100721.31
2023-09-07T11:17:12.145Z,100718.94
2023-09-07T11:19:41.569Z,100709.09
2023-09-07T11:22:11.840Z,100673.28
2023-09-07T11:24:39.756Z,100711.28
2023-09-07T11:27:07.739Z,100707.31
2023-09-07T11:29:35.426Z,100726.38
2023-09-07T11:32:10.415Z,100723.31
2023-09-07T11:34:52.288Z,100695.25
2023-09-07T11:37:26.292Z,100707.78
2023-09-07T11:39:54.906Z,100702.34
2023-09-07T11:42:23.616Z,100709.97
2023-09-07T11:44:51.439Z,100709.44
2023-09-07T11:47:19.539Z,100698.34
2023-09-07T11:49:47.656Z,100705.81
2023-09-07T11:52:17.045Z,100701.34
2023-09-07T11:54:46.410Z,100697.56
2023-09-07T11:57:14.153Z,100694.97
2023-09-07T11:59:57.749Z,100697.50
2023-09-07T12:02:28.264Z,100694.00
2023-09-07T12:04:56.698Z,100685.72
2023-09-07T12:07:26.500Z,100686.50
2023-09-07T12:09:58.245Z,100676.69
2023-09-07T12:12:26.497Z,100683.78
2023-09-07T12:14:54.643Z,100696.38
2023-09-07T12:17:23.300Z,100679.22
2023-09-07T12:19:53.163Z,100687.66
2023-09-07T12:22:21.108Z,100682.06
2023-09-07T12:25:02.233Z,100680.88
2023-09-07T12:27:44.053Z,100663.00
2023-09-07T12:30:21.657Z,100672.44
2023-09-07T12:32:53.567Z,100660.44
2023-09-07T12:35:22.208Z,100668.16
2023-09-07T12:37:50.267Z,100658.59
2023-09-07T12:40:19.390Z,100662.47
2023-09-07T12:42:48.119Z,100671.72
2023-09-07T12:45:16.562Z,100659.13
2023-09-07T12:47:44.484Z,100673.00
2023-09-07T12:50:13.742Z,100667.00
2023-09-07T12:52:43.061Z,100653.47
2023-09-07T12:55:11.594Z,100655.94
2023-09-07T12:57:44.097Z,100658.13
2023-09-07T13:00:12.832Z,100658.13
2023-09-07T13:02:40.828Z,100658.66
2023-09-07T13:05:09.767Z,100648.22
2023-09-07T13:07:37.579Z,100649.03
2023-09-07T13:10:06.677Z,100650.97
2023-09-07T13:12:34.722Z,100642.22
2023-09-07T13:15:04.982Z,100657.56
2023-09-07T13:17:33.161Z,100644.22
2023-09-07T13:20:01.504Z,100642.16
2023-09-07T13:22:30.478Z,100632.59
2023-09-07T13:24:58.591Z,100627.13
2023-09-07T13:27:27.143Z,100635.41
2023-09-07T13:29:54.912Z,100623.25
2023-09-07T13:32:24.161Z,100620.34
2023-09-07T13:34:52.490Z,100625.25
2023-09-07T13:37:20.495Z,100618.94
2023-09-07T13:39:48.839Z,100612.63
2023-09-07T13:42:17.241Z,100603.78
2023-09-07T13:44:46.586Z,100611.19
2023-09-07T13:47:14.702Z,100606.22
2023-09-07T13:49:43.898Z,100613.28
2023-09-07T13:52:11.773Z,100607.41
2023-09-07T13:54:39.655Z,100598.66
2023-09-07T13:57:09.471Z,100596.38
2023-09-07T13:59:37.484Z,100614.28
2023-09-07T14:02:06.417Z,100602.59
2023-09-07T14:04:36.007Z,100606.84
2023-09-07T14:07:13.966Z,100591.03
2023-09-07T14:09:51.937Z,100597.91
2023-09-07T14:12:20.527Z,100602.97
2023-09-07T14:14:48.820Z,100586.88
2023-09-07T14:17:16.737Z,100589.41
2023-09-07T14:19:46.804Z,100594.78
2023-09-07T14:22:16.527Z,100593.34
2023-09-07T14:24:47.080Z,100587.44
2023-09-07T14:27:15.252Z,100579.63
2023-09-07T14:29:43.661Z,100581.19
2023-09-07T14:32:12.339Z,100575.19
2023-09-07T14:34:40.207Z,100583.84
2023-09-07T14:37:16.054Z,100586.09
2023-09-07T14:42:41.212Z,100570.59
2023-09-07T14:45:10.034Z,100587.63
2023-09-07T14:47:41.601Z,100572.84
2023-09-07T14:50:11.040Z,100573.03
2023-09-07T14:52:43.189Z,100568.25
2023-09-07T14:55:12.609Z,100570.97
2023-09-07T14:57:40.835Z,100575.78
2023-09-07T15:00:10.394Z,100580.75
2023-09-07T15:02:39.502Z,100572.38
2023-09-07T15:05:12.335Z,100562.81
2023-09-07T15:07:43.001Z,100565.75
2023-09-07T15:10:12.561Z,100530.63
2023-09-07T15:12:43.698Z,100539.53
2023-09-07T15:15:13.940Z,100529.78
2023-09-07T15:17:42.320Z,100552.19
2023-09-07T15:20:11.091Z,100566.13
2023-09-07T15:22:41.361Z,100561.63
2023-09-07T15:25:10.988Z,100563.22
2023-09-07T15:27:41.476Z,100561.91
2023-09-07T15:30:12.404Z,100560.41
2023-09-07T15:32:43.660Z,100554.50
2023-09-07T15:35:11.925Z,100520.09
2023-09-07T15:37:42.131Z,100548.81
2023-09-07T15:40:13.428Z,100554.03
2023-09-07T15:42:43.443Z,100559.66
2023-09-07T15:45:12.352Z,100558.53
2023-09-07T15:47:40.772Z,100563.59
2023-09-07T15:50:11.120Z,100554.50
2023-09-07T15:52:48.332Z,100542.94
2023-09-07T15:55:19.484Z,100570.81
2023-09-07T15:57:49.945Z,100568.09
2023-09-07T16:00:20.657Z,100563.72
2023-09-07T16:02:51.114Z,100547.34
2023-09-07T16:05:20.030Z,100568.88
2023-09-07T16:07:48.504Z,100563.78
2023-09-07T16:10:19.924Z,100564.84
2023-09-07T16:12:50.561Z,100535.69
2023-09-07T16:15:19.099Z,100579.41
2023-09-07T16:17:47.388Z,100558.44
2023-09-07T16:20:15.507Z,100569.06
2023-09-07T16:22:43.363Z,100572.09
2023-09-07T16:25:11.836Z,100565.59
2023-09-07T16:27:41.862Z,100561.63
2023-09-07T16:30:16.675Z,100556.59
2023-09-07T16:32:44.545Z,100560.72
2023-09-07T16:35:12.909Z,100542.78
2023-09-07T16:37:42.230Z,100564.00
2023-09-07T16:40:12.667Z,100566.56
2023-09-07T16:42:44.536Z,100566.78
2023-09-07T16:45:15.454Z,100561.88
2023-09-07T16:47:43.503Z,100548.78
2023-09-07T16:50:12.069Z,100562.66
2023-09-07T16:52:40.155Z,100525.28
2023-09-07T16:55:11.074Z,100563.09
2023-09-07T16:57:38.907Z,100581.59
2023-09-07T17:00:08.368Z,100550.75
2023-09-07T17:02:37.657Z,100586.06
2023-09-07T17:05:06.434Z,100576.44
2023-09-07T17:07:36.143Z,100575.09
2023-09-07T17:10:05.133Z,100568.81
2023-09-07T17:12:34.456Z,100572.06
2023-09-07T17:15:02.340Z,100579.03
2023-09-07T17:17:30.659Z,100577.06
2023-09-07T17:20:01.843Z,100568.78
2023-09-07T17:22:29.741Z,100577.97
2023-09-07T17:24:59.328Z,100576.09
2023-09-07T17:27:28.261Z,100574.44
2023-09-07T17:29:59.299Z,100572.22
2023-09-07T17:32:29.738Z,100565.78
2023-09-07T17:35:01.749Z,100572.94
2023-09-07T17:37:31.668Z,100573.94
2023-09-07T17:40:02.023Z,100573.63
2023-09-07T17:42:30.997Z,100575.66
2023-09-07T17:44:59.253Z,100563.44
2023-09-07T17:47:29.558Z,100577.19
2023-09-07T17:49:59.311Z,100578.22
2023-09-07T17:52:28.422Z,100585.84
2023-09-07T17:54:58.435Z,100588.19
2023-09-07T17:57:27.713Z,100576.28
2023-09-07T17:59:58.848Z,100580.72
2023-09-07T18:02:31.082Z,100582.91
2023-09-07T18:05:02.726Z,100582.19
2023-09-07T18:07:32.205Z,100581.50
2023-09-07T18:10:02.042Z,100579.44
2023-09-07T18:12:31.298Z,100583.75
2023-09-07T18:14:59.517Z,100587.63
2023-09-07T18:17:28.245Z,100589.78
2023-09-07T18:19:56.113Z,100582.44
2023-09-07T18:22:23.841Z,100594.59
2023-09-07T18:24:52.667Z,100594.69
2023-09-07T18:27:21.987Z,100602.78
2023-09-07T18:29:49.981Z,100595.50
2023-09-07T18:32:17.926Z,100604.75
2023-09-07T18:34:45.816Z,100600.44
2023-09-07T18:37:14.578Z,100594.81
2023-09-07T18:39:42.728Z,100605.94
2023-09-07T18:42:12.505Z,100599.88
2023-09-07T18:44:41.977Z,100606.66
2023-09-07T18:47:10.499Z,100608.16
2023-09-07T18:49:42.573Z,100607.75
2023-09-07T18:52:10.995Z,100617.22
2023-09-07T18:54:41.032Z,100614.34
2023-09-07T18:57:15.761Z,100613.03
2023-09-07T18:59:45.029Z,100617.00
2023-09-07T19:02:17.124Z,100603.47
2023-09-07T19:04:50.886Z,100613.38
2023-09-07T19:07:21.255Z,100614.34
2023-09-07T19:09:50.240Z,100616.31
2023-09-07T19:12:21.632Z,100609.41
2023-09-07T19:14:52.797Z,100611.22
2023-09-07T19:17:20.941Z,100608.94
2023-09-07T19:19:51.149Z,100613.94
2023-09-07T19:22:27.143Z,100612.22
2023-09-07T19:24:56.590Z,100611.22
2023-09-07T19:27:24.951Z,100621.53
2023-09-07T19:30:06.259Z,100616.03
2023-09-07T19:32:34.968Z,100614.91
2023-09-07T19:35:05.632Z,100607.56
2023-09-07T19:37:33.941Z,100622.84
2023-09-07T19:40:06.161Z,100584.78
2023-09-07T19:42:34.136Z,100601.72
2023-09-07T19:45:05.860Z,100619.31
2023-09-07T19:47:35.779Z,100620.69
2023-09-07T19:50:05.136Z,100627.16
2023-09-07T19:52:33.999Z,100611.81
2023-09-07T19:55:20.188Z,100620.34
2023-09-07T19:58:11.866Z,100625.28
2023-09-07T20:00:51.261Z,100612.19
2023-09-07T20:03:20.040Z,100621.13
2023-09-07T20:05:54.387Z,100608.00
2023-09-07T20:08:22.670Z,100628.28
2023-09-07T20:10:59.123Z,100610.09
2023-09-07T20:13:37.120Z,100588.78
2023-09-07T20:16:19.071Z,100632.47
2023-09-07T20:18:52.159Z,100627.53
2023-09-07T20:21:30.426Z,100623.19
2023-09-07T20:24:10.922Z,100635.03
2023-09-07T20:26:53.434Z,100622.75
2023-09-07T20:29:34.576Z,100640.44
2023-09-07T20:32:08.816Z,100631.31
2023-09-07T20:35:02.014Z,100643.78
2023-09-07T20:37:41.461Z,100640.34
2023-09-07T20:40:15.708Z,100601.91
2023-09-07T20:43:09.529Z,100554.97
2023-09-07T20:45:49.564Z,100631.97
2023-09-07T20:48:23.110Z,100620.38
2023-09-07T20:50:51.835Z,100642.09
2023-09-07T20:53:25.943Z,100645.03
2023-09-07T20:55:58.099Z,100644.69
2023-09-07T20:58:40.400Z,100644.34
2023-09-07T21:01:11.162Z,100621.16
2023-09-07T21:03:40.667Z,100635.09
2023-09-07T21:06:13.093Z,100636.06
2023-09-07T21:08:57.671Z,100610.88
2023-09-07T21:11:27.160Z,100629.84
2023-09-07T21:13:55.084Z,100646.91
2023-09-07T21:16:23.626Z,100641.56
2023-09-07T21:18:54.113Z,100645.34
2023-09-07T21:21:22.040Z,100644.47
2023-09-07T21:24:05.144Z,100645.56
2023-09-07T21:26:46.629Z,100625.78
2023-09-07T21:29:18.394Z,100635.44
2023-09-07T21:31:48.236Z,100641.66
2023-09-07T21:34:25.185Z,100636.28
2023-09-07T21:36:56.663Z,100655.72
2023-09-07T21:39:26.964Z,100625.28
2023-09-07T21:41:57.344Z,100650.31
2023-09-07T21:44:28.301Z,100641.50
2023-09-07T21:46:59.713Z,100655.34
2023-09-07T21:49:34.196Z,100639.69
2023-09-07T21:52:02.798Z,100643.63
2023-09-07T21:54:33.187Z,100643.63
2023-09-07T21:57:01.166Z,100646.31
2023-09-07T21:59:29.124Z,100639.69
2023-09-07T22:02:01.565Z,100641.63
2023-09-07T22:04:33.272Z,100647.88
2023-09-07T22:07:04.704Z,100639.94
2023-09-07T22:09:35.247Z,100638.34
2023-09-07T22:12:03.752Z,100643.84
2023-09-07T22:14:34.386Z,100647.13
2023-09-07T22:17:05.398Z,100643.59
2023-09-07T22:19:35.906Z,100638.06
2023-09-07T22:22:05.439Z,100632.34
2023-09-07T22:24:34.429Z,100646.09
2023-09-07T22:27:03.056Z,100646.50
2023-09-07T22:29:31.427Z,100642.56
2023-09-07T22:31:59.606Z,100645.88
2023-09-07T22:34:32.276Z,100637.19
2023-09-07T22:37:02.945Z,100623.78
2023-09-07T22:39:31.767Z,100649.91
2023-09-07T22:41:59.834Z,100646.72
2023-09-07T22:44:27.671Z,100652.81
2023-09-07T22:46:56.614Z,100629.88
2023-09-07T22:49:24.721Z,100646.31
2023-09-07T22:51:52.791Z,100656.47
2023-09-07T22:54:23.452Z,100655.34
2023-09-07T22:56:51.363Z,100653.06
2023-09-07T22:59:20.294Z,100649.75
2023-09-07T23:01:48.160Z,100653.88
2023-09-07T23:04:16.355Z,100653.03
2023-09-07T23:06:44.643Z,100647.28
2023-09-07T23:09:14.934Z,100658.00
2023-09-07T23:11:44.388Z,100637.44
2023-09-07T23:14:12.612Z,100656.84
2023-09-07T23:16:41.064Z,100653.66
2023-09-07T23:19:09.155Z,100653.94
2023-09-07T23:21:37.449Z,100654.81
2023-09-07T23:24:05.640Z,100659.75
2023-09-07T23:26:33.940Z,100659.34
2023-09-07T23:29:03.363Z,100650.69
2023-09-07T23:31:31.675Z,100641.66
2023-09-07T23:33:59.844Z,100642.41
2023-09-07T23:36:27.884Z,100646.19
2023-09-07T23:38:55.851Z,100641.28
2023-09-07T23:41:23.872Z,100641.41
2023-09-07T23:43:52.602Z,100637.47
2023-09-07T23:46:23.010Z,100643.78
2023-09-07T23:48:50.925Z,100643.94
2023-09-07T23:51:19.376Z,100638.44
2023-09-07T23:53:47.605Z,100645.50
2023-09-07T23:56:15.734Z,100648.47
2023-09-07T23:58:43.511Z,100639.06
